createdAt,value
2018-05-18T00:00:09.596Z,100.00
2018-05-18T00:02:39.975Z,100.00
2018-05-18T00:05:09.614Z,100.00
2018-05-18T00:07:39.355Z,100.00
2018-05-18T00:10:10.626Z,100.00
2018-05-18T00:12:41.017Z,100.00
2018-05-18T00:15:10.749Z,100.00
2018-05-18T00:17:42.607Z,100.00
2018-05-18T00:20:26.866Z,100.00
2018-05-18T00:22:57.253Z,100.00
2018-05-18T00:25:27.105Z,100.00
2018-05-18T00:27:57.605Z,100.00
2018-05-18T00:30:27.938Z,100.00
2018-05-18T00:32:57.543Z,100.00
2018-05-18T00:35:28.188Z,100.00
2018-05-18T00:38:01.386Z,100.00
2018-05-18T00:40:31.910Z,100.00
2018-05-18T00:43:02.156Z,100.00
2018-05-18T00:45:33.495Z,100.00
2018-05-18T00:48:03.926Z,100.00
2018-05-18T00:50:35.140Z,100.00
2018-05-18T00:53:04.925Z,100.00
2018-05-18T00:55:42.986Z,100.00
2018-05-18T00:58:12.796Z,100.00
2018-05-18T01:03:45.255Z,100.00
2018-05-18T01:06:15.120Z,100.00
2018-05-18T01:08:45.527Z,100.00
2018-05-18T01:11:15.319Z,100.00
2018-05-18T01:13:44.831Z,100.00
2018-05-18T01:16:15.903Z,100.00
2018-05-18T01:18:45.701Z,100.00
2018-05-18T01:21:16.649Z,100.00
2018-05-18T01:23:46.351Z,100.00
2018-05-18T01:26:16.420Z,100.00
2018-05-18T01:28:46.185Z,100.00
2018-05-18T01:31:15.880Z,100.00
2018-05-18T01:33:45.705Z,100.00
2018-05-18T01:36:15.357Z,100.00
2018-05-18T01:38:46.257Z,100.00
2018-05-18T01:41:16.722Z,100.00
2018-05-18T01:43:47.094Z,100.00
2018-05-18T01:46:16.810Z,100.00
2018-05-18T01:48:47.149Z,100.00
2018-05-18T01:51:16.741Z,100.00
2018-05-18T01:53:46.371Z,100.00
2018-05-18T01:56:16.078Z,100.00
2018-05-18T01:58:45.789Z,100.00
2018-05-18T02:01:15.479Z,100.00
2018-05-18T02:03:45.313Z,100.00
2018-05-18T02:06:14.932Z,100.00
2018-05-18T02:08:44.512Z,100.00
2018-05-18T02:11:15.765Z,100.00
2018-05-18T02:13:45.484Z,100.00
2018-05-18T02:16:15.098Z,100.00
2018-05-18T02:18:44.880Z,100.00
2018-05-18T02:21:14.554Z,100.00
2018-05-18T02:23:45.127Z,100.00
2018-05-18T02:26:14.703Z,100.00
2018-05-18T02:28:45.138Z,100.00
2018-05-18T02:31:14.990Z,100.00
2018-05-18T02:33:44.561Z,100.00
2018-05-18T02:36:14.375Z,100.00
2018-05-18T02:38:45.222Z,100.00
2018-05-18T02:41:14.868Z,100.00
2018-05-18T02:43:44.423Z,100.00
2018-05-18T02:46:14.190Z,100.00
2018-05-18T02:48:45.297Z,100.00
2018-05-18T02:51:14.859Z,100.00
2018-05-18T02:53:45.211Z,100.00
2018-05-18T02:56:14.856Z,100.00
2018-05-18T02:58:44.387Z,100.00
2018-05-18T03:01:14.193Z,100.00
2018-05-18T03:03:43.697Z,100.00
2018-05-18T03:06:13.266Z,100.00
2018-05-18T03:08:42.898Z,100.00
2018-05-18T03:11:12.427Z,100.00
2018-05-18T03:13:42.028Z,100.00
2018-05-18T03:16:11.622Z,100.00
2018-05-18T03:18:42.052Z,100.00
2018-05-18T03:21:11.611Z,100.00
2018-05-18T03:23:42.098Z,100.00
2018-05-18T03:26:11.700Z,100.00
2018-05-18T03:28:42.029Z,100.00
2018-05-18T03:31:11.832Z,100.00
2018-05-18T03:33:41.312Z,100.00
2018-05-18T03:36:11.080Z,100.00
2018-05-18T03:38:41.418Z,100.00
2018-05-18T03:41:11.912Z,100.00
2018-05-18T03:43:41.839Z,100.00
2018-05-18T03:46:12.495Z,100.00
2018-05-18T03:48:49.087Z,100.00
2018-05-18T03:54:42.200Z,100.00
2018-05-18T03:57:11.880Z,100.00
2018-05-18T03:59:41.417Z,100.00
2018-05-18T04:02:28.775Z,100.00
2018-05-18T04:05:16.107Z,100.00
2018-05-18T04:08:03.318Z,100.00
2018-05-18T04:10:32.862Z,100.00
2018-05-18T04:13:03.629Z,100.00
2018-05-18T04:15:33.311Z,100.00
2018-05-18T04:18:03.600Z,100.00
2018-05-18T04:20:33.110Z,100.00
2018-05-18T04:23:04.389Z,100.00
2018-05-18T04:25:34.089Z,100.00
2018-05-18T04:28:04.557Z,100.00
2018-05-18T04:30:34.214Z,100.00
2018-05-18T04:33:04.580Z,100.00
2018-05-18T04:35:34.309Z,100.00
2018-05-18T04:38:03.922Z,100.00
2018-05-18T04:40:34.050Z,100.00
2018-05-18T04:43:04.083Z,100.00
2018-05-18T04:45:35.636Z,100.00
2018-05-18T04:48:05.816Z,100.00
2018-05-18T04:50:35.643Z,100.00
2018-05-18T04:53:05.284Z,100.00
2018-05-18T04:55:35.761Z,100.00
2018-05-18T04:58:05.349Z,100.00
2018-05-18T05:00:34.891Z,100.00
2018-05-18T05:03:04.480Z,100.00
2018-05-18T05:05:34.495Z,98.94
2018-05-18T05:08:04.071Z,97.93
2018-05-18T05:10:33.724Z,92.61
2018-05-18T05:13:03.769Z,89.04
2018-05-18T05:15:33.306Z,90.23
2018-05-18T05:18:03.723Z,87.43
2018-05-18T05:20:33.426Z,91.44
2018-05-18T05:23:03.451Z,93.51
2018-05-18T05:25:33.904Z,92.19
2018-05-18T05:28:03.847Z,90.59
2018-05-18T05:30:33.615Z,91.43
2018-05-18T05:33:03.806Z,87.99
2018-05-18T05:35:35.091Z,84.29
2018-05-18T05:38:06.132Z,82.52
2018-05-18T05:40:35.875Z,80.15
2018-05-18T05:43:05.854Z,75.87
2018-05-18T05:45:35.675Z,72.35
2018-05-18T05:48:06.126Z,71.24
2018-05-18T05:50:37.461Z,72.88
2018-05-18T05:53:08.900Z,67.34
2018-05-18T05:55:41.778Z,69.13
2018-05-18T05:58:12.267Z,68.97
2018-05-18T06:00:42.099Z,66.44
2018-05-18T06:03:14.137Z,67.26
2018-05-18T06:05:44.159Z,69.79
2018-05-18T06:08:14.629Z,65.76
2018-05-18T06:10:44.366Z,66.22
2018-05-18T06:13:18.557Z,67.13
2018-05-18T06:15:49.258Z,64.82
2018-05-18T06:18:21.191Z,64.46
2018-05-18T06:20:51.145Z,65.52
2018-05-18T06:23:20.746Z,64.59
2018-05-18T06:25:50.633Z,63.12
2018-05-18T06:28:20.214Z,61.05
2018-05-18T06:30:51.684Z,63.89
2018-05-18T06:33:21.646Z,60.91
2018-05-18T06:35:51.168Z,59.28
2018-05-18T06:38:21.728Z,59.33
2018-05-18T06:40:52.126Z,58.89
2018-05-18T06:43:21.941Z,58.36
2018-05-18T06:45:53.630Z,62.17
2018-05-18T06:48:25.232Z,65.75
2018-05-18T06:50:55.051Z,67.13
2018-05-18T06:53:24.746Z,64.42
2018-05-18T06:55:54.303Z,63.78
2018-05-18T06:58:24.694Z,61.10
2018-05-18T07:00:54.219Z,58.43
2018-05-18T07:03:23.714Z,56.51
2018-05-18T07:05:53.568Z,52.98
2018-05-18T07:08:23.117Z,52.08
2018-05-18T07:10:52.836Z,47.75
2018-05-18T07:13:22.544Z,46.42
2018-05-18T07:15:52.342Z,46.86
2018-05-18T07:18:22.879Z,47.91
2018-05-18T07:20:52.899Z,46.50
2018-05-18T07:23:22.579Z,46.54
2018-05-18T07:25:52.305Z,45.16
2018-05-18T07:28:21.934Z,45.31
2018-05-18T07:30:51.600Z,46.71
2018-05-18T07:33:21.122Z,43.64
2018-05-18T07:35:50.833Z,43.57
2018-05-18T07:38:20.569Z,40.70
2018-05-18T07:40:50.301Z,43.25
2018-05-18T07:43:20.654Z,45.10
2018-05-18T07:45:51.541Z,47.55
2018-05-18T07:48:21.055Z,46.40
2018-05-18T07:50:50.686Z,43.85
2018-05-18T07:53:20.268Z,40.05
2018-05-18T07:55:49.980Z,40.34
2018-05-18T07:58:19.692Z,39.29
2018-05-18T08:00:50.646Z,40.07
2018-05-18T08:03:20.407Z,39.66
2018-05-18T08:05:50.277Z,43.62
2018-05-18T08:08:21.189Z,43.29
2018-05-18T08:10:50.700Z,43.81
2018-05-18T08:13:20.395Z,45.36
2018-05-18T08:15:50.211Z,40.73
2018-05-18T08:18:19.968Z,38.47
2018-05-18T08:20:50.004Z,39.50
2018-05-18T08:23:20.331Z,38.33
2018-05-18T08:25:50.076Z,39.67
2018-05-18T08:28:20.397Z,37.23
2018-05-18T08:31:14.611Z,36.37
2018-05-18T08:33:44.110Z,34.96
2018-05-18T08:36:13.665Z,33.14
2018-05-18T08:38:43.984Z,32.71
2018-05-18T08:41:15.389Z,34.07
2018-05-18T08:43:45.248Z,32.59
2018-05-18T08:46:16.265Z,32.53
2018-05-18T08:48:45.941Z,31.65
2018-05-18T08:51:15.728Z,33.72
2018-05-18T08:53:45.476Z,37.91
2018-05-18T08:56:15.114Z,39.88
2018-05-18T08:58:44.669Z,38.62
2018-05-18T09:01:14.620Z,39.84
2018-05-18T09:03:44.314Z,39.45
2018-05-18T09:06:13.955Z,36.43
2018-05-18T09:08:45.437Z,34.44
2018-05-18T09:11:15.747Z,31.41
2018-05-18T09:13:45.731Z,29.95
2018-05-18T09:16:15.538Z,30.80
2018-05-18T09:18:45.033Z,33.47
2018-05-18T09:21:14.667Z,34.33
2018-05-18T09:23:44.184Z,31.57
2018-05-18T09:26:13.693Z,31.94
2018-05-18T09:28:43.372Z,30.91
2018-05-18T09:31:12.830Z,31.17
2018-05-18T09:33:42.297Z,32.19
2018-05-18T09:36:11.995Z,29.97
2018-05-18T09:38:41.891Z,30.86
2018-05-18T09:41:11.908Z,33.63
2018-05-18T09:43:42.620Z,33.86
2018-05-18T09:46:12.868Z,33.04
2018-05-18T09:48:42.596Z,31.78
2018-05-18T09:51:12.087Z,31.14
2018-05-18T09:53:42.126Z,31.73
2018-05-18T09:56:11.726Z,32.99
2018-05-18T09:58:41.550Z,30.58
2018-05-18T10:01:12.287Z,32.10
2018-05-18T10:03:42.101Z,32.34
2018-05-18T10:06:12.769Z,28.69
2018-05-18T10:08:42.432Z,26.97
2018-05-18T10:11:12.006Z,26.94
2018-05-18T10:13:42.233Z,29.12
2018-05-18T10:16:13.375Z,29.79
2018-05-18T10:18:43.025Z,27.23
2018-05-18T10:21:12.931Z,28.26
2018-05-18T10:23:42.426Z,30.02
2018-05-18T10:29:15.099Z,30.77
2018-05-18T10:31:45.120Z,27.99
2018-05-18T10:34:14.697Z,28.59
2018-05-18T10:36:44.291Z,26.96
2018-05-18T10:39:15.593Z,26.46
2018-05-18T10:42:06.673Z,28.34
2018-05-18T10:44:36.339Z,32.30
2018-05-18T10:47:06.197Z,36.02
2018-05-18T10:49:35.928Z,34.92
2018-05-18T10:52:06.499Z,31.09
2018-05-18T10:54:36.993Z,28.95
2018-05-18T10:57:06.685Z,28.08
2018-05-18T10:59:37.086Z,27.24
2018-05-18T11:02:06.821Z,27.30
2018-05-18T11:04:37.119Z,28.68
2018-05-18T11:07:06.765Z,27.47
2018-05-18T11:09:36.524Z,27.23
2018-05-18T11:12:06.016Z,30.14
2018-05-18T11:14:35.631Z,30.29
2018-05-18T11:17:05.252Z,32.41
2018-05-18T11:19:34.979Z,32.56
2018-05-18T11:22:05.491Z,36.81
2018-05-18T11:24:35.135Z,36.33
2018-05-18T11:27:04.658Z,33.39
2018-05-18T11:29:35.102Z,31.79
2018-05-18T11:32:05.786Z,30.22
2018-05-18T11:34:35.479Z,30.80
2018-05-18T11:37:05.079Z,30.15
2018-05-18T11:39:34.615Z,30.63
2018-05-18T11:42:04.207Z,30.70
2018-05-18T11:44:34.618Z,30.90
2018-05-18T11:47:04.454Z,28.91
2018-05-18T11:49:34.176Z,30.11
2018-05-18T11:52:05.370Z,31.26
2018-05-18T11:54:34.996Z,29.39
2018-05-18T11:57:04.646Z,28.03
2018-05-18T11:59:36.040Z,29.40
2018-05-18T12:02:07.483Z,28.79
2018-05-18T12:04:37.148Z,28.51
2018-05-18T12:07:07.862Z,26.96
2018-05-18T12:09:37.472Z,26.87
2018-05-18T12:12:08.944Z,28.08
2018-05-18T12:14:38.483Z,28.28
2018-05-18T12:17:08.741Z,30.65
2018-05-18T12:19:39.178Z,30.09
2018-05-18T12:22:24.795Z,29.87
2018-05-18T12:24:54.574Z,32.37
2018-05-18T12:27:25.053Z,33.16
2018-05-18T12:29:56.071Z,34.32
2018-05-18T12:32:27.233Z,35.78
2018-05-18T12:34:57.569Z,39.72
2018-05-18T12:37:27.935Z,40.94
2018-05-18T12:39:57.530Z,42.68
2018-05-18T12:42:28.231Z,39.77
2018-05-18T12:44:57.771Z,36.40
2018-05-18T12:47:27.565Z,34.57
2018-05-18T12:49:57.301Z,32.26
2018-05-18T12:52:28.655Z,31.21
2018-05-18T13:04:14.251Z,36.73
2018-05-18T13:06:45.339Z,37.54
2018-05-18T13:09:20.166Z,38.51
2018-05-18T13:11:52.119Z,38.28
2018-05-18T13:14:21.835Z,38.10
2018-05-18T13:16:51.355Z,40.08
2018-05-18T13:19:20.987Z,40.14
2018-05-18T13:21:50.556Z,41.18
2018-05-18T13:24:20.012Z,41.52
2018-05-18T13:26:49.483Z,42.09
2018-05-18T13:29:19.169Z,39.71
2018-05-18T13:31:48.661Z,41.16
2018-05-18T13:34:29.118Z,38.78
2018-05-18T13:36:59.087Z,38.73
2018-05-18T13:39:29.075Z,38.49
2018-05-18T13:41:58.616Z,39.92
2018-05-18T13:44:28.605Z,40.67
2018-05-18T13:46:59.031Z,41.88
2018-05-18T13:49:28.877Z,41.96
2018-05-18T13:51:58.682Z,42.21
2018-05-18T13:54:28.204Z,41.27
2018-05-18T13:56:57.903Z,41.33
2018-05-18T13:59:27.380Z,41.67
2018-05-18T14:01:56.912Z,42.19
2018-05-18T14:04:26.517Z,40.08
2018-05-18T14:06:56.429Z,39.37
2018-05-18T14:09:26.067Z,41.52
2018-05-18T14:11:56.443Z,40.68
2018-05-18T14:14:26.736Z,39.21
2018-05-18T14:16:58.085Z,39.46
2018-05-18T14:19:27.947Z,40.65
2018-05-18T14:21:57.557Z,39.63
2018-05-18T14:24:27.603Z,40.73
2018-05-18T14:26:57.402Z,41.73
2018-05-18T14:29:26.929Z,41.14
2018-05-18T14:31:57.519Z,42.33
2018-05-18T14:34:27.221Z,42.37
2018-05-18T14:36:57.919Z,45.71
2018-05-18T14:39:28.545Z,46.54
2018-05-18T14:41:58.731Z,47.63
2018-05-18T14:44:33.047Z,46.65
2018-05-18T14:47:03.493Z,48.29
2018-05-18T14:49:33.549Z,48.52
2018-05-18T14:52:03.817Z,48.52
2018-05-18T14:54:33.519Z,48.89
2018-05-18T14:57:03.446Z,46.99
2018-05-18T14:59:33.039Z,48.58
2018-05-18T15:02:03.032Z,49.08
2018-05-18T15:04:32.553Z,49.80
2018-05-18T15:07:02.315Z,48.85
2018-05-18T15:09:32.209Z,50.09
2018-05-18T15:12:02.309Z,46.46
2018-05-18T15:14:31.984Z,44.28
2018-05-18T15:17:02.959Z,44.50
2018-05-18T15:19:34.232Z,44.92
2018-05-18T15:22:03.955Z,46.23
2018-05-18T15:24:33.708Z,46.86
2018-05-18T15:27:03.982Z,48.58
2018-05-18T15:29:33.664Z,47.75
2018-05-18T15:32:03.837Z,47.80
2018-05-18T15:34:33.400Z,47.89
2018-05-18T15:37:03.268Z,47.53
2018-05-18T15:39:33.751Z,46.47
2018-05-18T15:42:04.296Z,47.41
2018-05-18T15:44:38.100Z,47.04
2018-05-18T15:47:07.857Z,49.38
2018-05-18T15:49:39.355Z,48.69
2018-05-18T15:52:09.218Z,50.83
2018-05-18T15:54:40.005Z,50.62
2018-05-18T15:57:09.684Z,52.03
2018-05-18T15:59:39.307Z,51.73
2018-05-18T16:02:08.885Z,50.46
2018-05-18T16:04:39.355Z,51.31
2018-05-18T16:07:09.442Z,48.15
2018-05-18T16:09:39.929Z,49.23
2018-05-18T16:12:09.715Z,50.48
2018-05-18T16:14:39.728Z,50.83
2018-05-18T16:17:10.611Z,49.76
2018-05-18T16:19:40.460Z,49.91
2018-05-18T16:22:10.329Z,49.50
2018-05-18T16:24:40.113Z,50.32
2018-05-18T16:27:12.660Z,50.97
2018-05-18T16:29:43.225Z,51.08
2018-05-18T16:32:12.983Z,51.86
2018-05-18T16:34:43.527Z,51.34
2018-05-18T16:37:13.179Z,51.74
2018-05-18T16:39:43.166Z,51.12
2018-05-18T16:42:12.803Z,50.97
2018-05-18T16:44:42.607Z,51.59
2018-05-18T16:47:12.944Z,51.11
2018-05-18T16:49:42.447Z,51.99
2018-05-18T16:52:11.915Z,51.29
2018-05-18T16:54:42.163Z,51.88
2018-05-18T16:57:11.627Z,52.55
2018-05-18T16:59:42.015Z,53.10
2018-05-18T17:02:16.998Z,52.91
2018-05-18T17:04:47.404Z,52.73
2018-05-18T17:07:17.528Z,53.12
2018-05-18T17:09:47.251Z,53.07
2018-05-18T17:12:17.534Z,53.80
2018-05-18T17:14:47.934Z,54.10
2018-05-18T17:17:17.359Z,53.86
2018-05-18T17:19:48.093Z,53.59
2018-05-18T17:22:17.564Z,53.81
2018-05-18T17:24:47.843Z,54.30
2018-05-18T17:27:17.415Z,54.84
2018-05-18T17:29:47.849Z,55.13
2018-05-18T17:32:17.469Z,56.07
2018-05-18T17:34:46.913Z,56.51
2018-05-18T17:37:16.677Z,56.34
2018-05-18T17:39:46.189Z,56.82
2018-05-18T17:42:16.048Z,56.94
2018-05-18T17:44:45.559Z,56.68
2018-05-18T17:47:15.225Z,57.09
2018-05-18T17:49:44.943Z,56.17
2018-05-18T17:52:14.521Z,56.06
2018-05-18T17:54:44.125Z,56.90
2018-05-18T17:57:13.639Z,56.58
2018-05-18T17:59:44.687Z,56.71
2018-05-18T18:02:14.300Z,57.08
2018-05-18T18:04:44.070Z,57.27
2018-05-18T18:07:13.711Z,57.91
2018-05-18T18:09:43.321Z,57.37
2018-05-18T18:12:13.939Z,58.56
2018-05-18T18:14:44.819Z,57.09
2018-05-18T18:17:14.398Z,57.40
2018-05-18T18:19:46.906Z,56.41
2018-05-18T18:22:16.502Z,57.86
2018-05-18T18:24:46.299Z,58.32
2018-05-18T18:27:15.907Z,56.73
2018-05-18T18:29:46.239Z,58.58
2018-05-18T18:32:15.923Z,58.80
2018-05-18T18:34:45.591Z,58.91
2018-05-18T18:37:15.641Z,60.17
2018-05-18T18:39:46.081Z,59.55
2018-05-18T18:42:15.947Z,59.33
2018-05-18T18:44:45.509Z,59.22
2018-05-18T18:47:15.136Z,59.56
2018-05-18T18:49:44.775Z,59.30
2018-05-18T18:52:16.248Z,59.64
2018-05-18T18:54:45.940Z,60.02
2018-05-18T18:57:15.493Z,58.90
2018-05-18T18:59:44.983Z,58.68
2018-05-18T19:02:14.723Z,59.18
2018-05-18T19:04:44.420Z,59.74
2018-05-18T19:07:15.579Z,60.55
2018-05-18T19:09:45.404Z,60.94
2018-05-18T19:12:20.948Z,61.48
2018-05-18T19:14:50.742Z,61.43
2018-05-18T19:17:20.715Z,62.78
2018-05-18T19:19:50.338Z,62.36
2018-05-18T19:22:21.988Z,62.60
2018-05-18T19:24:52.313Z,62.71
2018-05-18T19:27:24.683Z,62.06
2018-05-18T19:29:54.480Z,62.64
2018-05-18T19:32:24.505Z,62.25
2018-05-18T19:34:54.371Z,62.85
2018-05-18T19:37:25.803Z,62.90
2018-05-18T19:39:55.953Z,63.83
2018-05-18T19:42:26.069Z,64.83
2018-05-18T19:44:55.802Z,65.05
2018-05-18T19:47:25.796Z,65.97
2018-05-18T19:49:55.973Z,66.45
2018-05-18T19:52:25.840Z,67.04
2018-05-18T19:54:55.416Z,67.85
2018-05-18T19:57:25.826Z,67.59
2018-05-18T19:59:56.136Z,68.03
2018-05-18T20:02:26.322Z,68.14
2018-05-18T20:04:56.859Z,67.06
2018-05-18T20:07:27.001Z,66.62
2018-05-18T20:09:56.993Z,66.47
2018-05-18T20:16:45.581Z,67.01
2018-05-18T20:19:20.364Z,67.38
2018-05-18T20:21:49.993Z,68.23
2018-05-18T20:24:19.771Z,68.86
2018-05-18T20:26:50.334Z,69.09
2018-05-18T20:29:21.178Z,69.63
2018-05-18T20:31:50.796Z,70.74
2018-05-18T20:34:20.633Z,71.28
2018-05-18T20:36:50.335Z,72.33
2018-05-18T20:39:20.460Z,72.40
2018-05-18T20:45:01.504Z,72.28
2018-05-18T20:47:57.068Z,72.39
2018-05-18T20:50:26.866Z,73.14
2018-05-18T20:52:56.799Z,74.15
2018-05-18T20:55:27.946Z,74.50
2018-05-18T20:57:59.915Z,74.43
2018-05-18T21:00:31.235Z,74.40
2018-05-18T21:03:01.568Z,74.03
2018-05-18T21:05:31.788Z,74.21
2018-05-18T21:08:02.367Z,74.15
2018-05-18T21:13:51.750Z,72.65
2018-05-18T21:16:23.351Z,73.40
2018-05-18T21:18:53.278Z,73.97
2018-05-18T21:21:22.986Z,74.27
2018-05-18T21:23:53.021Z,74.45
2018-05-18T21:26:24.375Z,74.16
2018-05-18T21:28:54.145Z,74.15
2018-05-18T21:31:24.574Z,74.42
2018-05-18T21:33:54.919Z,74.68
2018-05-18T21:36:25.070Z,75.12
2018-05-18T21:38:55.672Z,75.51
2018-05-18T21:41:25.484Z,75.52
2018-05-18T21:43:58.629Z,75.82
2018-05-18T21:46:29.303Z,76.29
2018-05-18T21:48:59.336Z,76.64
2018-05-18T21:51:29.702Z,77.27
2018-05-18T21:53:59.546Z,77.49
2018-05-18T21:56:30.251Z,77.95
2018-05-18T21:58:59.951Z,78.31
2018-05-18T22:01:41.383Z,79.33
2018-05-18T22:04:15.710Z,79.76
2018-05-18T22:06:45.690Z,80.27
2018-05-18T22:09:17.251Z,80.73
2018-05-18T22:11:46.993Z,81.65
2018-05-18T22:14:16.862Z,82.46
2018-05-18T22:16:47.652Z,83.15
2018-05-18T22:19:17.471Z,83.93
2018-05-18T22:21:47.238Z,84.50
2018-05-18T22:24:17.377Z,85.34
2018-05-18T22:26:47.098Z,85.56
2018-05-18T22:29:18.197Z,85.20
2018-05-18T22:31:47.925Z,84.83
2018-05-18T22:34:17.879Z,84.55
2018-05-18T22:36:47.661Z,84.51
2018-05-18T22:39:17.555Z,84.77
2018-05-18T22:45:04.289Z,85.29
2018-05-18T22:47:35.446Z,85.87
2018-05-18T22:50:06.595Z,86.28
2018-05-18T22:53:24.746Z,87.33
2018-05-18T22:55:57.447Z,88.13
2018-05-18T22:58:27.268Z,88.91
2018-05-18T23:01:04.590Z,88.65
2018-05-18T23:03:35.301Z,88.50
2018-05-18T23:06:06.193Z,89.15
2018-05-18T23:08:36.975Z,89.62
2018-05-18T23:11:06.687Z,90.48
2018-05-18T23:17:10.861Z,90.34
2018-05-18T23:19:40.946Z,89.97
2018-05-18T23:22:13.609Z,89.98
2018-05-18T23:25:02.046Z,89.79
2018-05-18T23:27:32.271Z,90.14
2018-05-18T23:30:02.615Z,90.16
2018-05-18T23:32:32.289Z,90.28
2018-05-18T23:35:02.153Z,90.84
2018-05-18T23:37:32.026Z,90.73
2018-05-18T23:40:09.299Z,90.59
2018-05-18T23:42:39.493Z,91.09
2018-05-18T23:45:09.120Z,91.16
2018-05-18T23:47:38.671Z,91.95
2018-05-18T23:50:08.398Z,91.90
2018-05-18T23:52:38.401Z,91.80
2018-05-18T23:55:19.155Z,91.80
2018-05-18T23:57:49.148Z,92.13
